Monday, August 21, 2017, 7:51 AM EDT
Back to Local

KPTW, Pottstown Limerick Airport

Location: Royersford, PA, United States Lat: 40.233
Local Time: 7:51 AM EDT (11:51 GMT) Lon: -75.55
Time Zone: US/Eastern Elev: 291 ft

Show me the last for .
Show Decoded

2017-08-21 06:54 METAR KPTW 211054Z AUTO 00000KT 3SM BR CLR 16/16 A3024 RMK AO2 SLP236 T01610161
                 =
2017-08-21 05:54 METAR KPTW 210954Z AUTO 00000KT 5SM BR CLR 16/16 A3023 RMK AO2 SLP233 T01560156
                 =
2017-08-21 04:54 METAR KPTW 210854Z AUTO 00000KT 5SM BR CLR 16/16 A3022 RMK AO2 SLP227 T01560156
                 53003 =
2017-08-21 03:54 METAR KPTW 210754Z AUTO 00000KT 6SM BR CLR 17/17 A3021 RMK AO2 SLP225 T01670167
                 =
2017-08-21 02:54 METAR KPTW 210654Z AUTO 00000KT 6SM BR CLR 17/17 A3021 RMK AO2 SLP224 T01720172
                 =
2017-08-21 01:54 METAR KPTW 210554Z AUTO 00000KT 7SM CLR 17/17 A3021 RMK AO2 SLP224 T01720172
                 10228 20172 50003 =
2017-08-21 00:54 METAR KPTW 210454Z AUTO 00000KT 7SM CLR 18/17 A3021 RMK AO2 SLP226 T01780172
                 402720156 =
2017-08-20 23:54 METAR KPTW 210354Z AUTO 00000KT 8SM CLR 19/19 A3021 RMK AO2 SLP224 T01940189 =
2017-08-20 22:54 METAR KPTW 210254Z AUTO 00000KT 8SM CLR 19/18 A3020 RMK AO2 SLP223 T01890183
                 51021 =
2017-08-20 21:54 METAR KPTW 210154Z AUTO 00000KT 9SM CLR 19/19 A3019 RMK AO2 SLP218 T01940189 =
2017-08-20 20:54 METAR KPTW 210054Z AUTO 00000KT 9SM CLR 21/18 A3016 RMK AO2 SLP211 T02060183 =
2017-08-20 19:54 METAR KPTW 202354Z AUTO 00000KT 8SM CLR 23/18 A3014 RMK AO2 SLP202 T02280178
                 10272 20228 53005 =
2017-08-20 18:54 METAR KPTW 202254Z AUTO 00000KT 8SM CLR 26/16 A3013 RMK AO2 SLP198 T02610161 =
2017-08-20 17:54 METAR KPTW 202154Z AUTO 30005KT 8SM CLR 27/16 A3012 RMK AO2 SLP196 T02670161 =
2017-08-20 16:54 METAR KPTW 202054Z AUTO 32006KT 9SM CLR 27/16 A3012 RMK AO2 SLP195 T02720156
                 55007 =
2017-08-20 15:54 METAR KPTW 201954Z AUTO 35005KT 10SM CLR 27/16 A3012 RMK AO2 SLP193 T02720161 =
2017-08-20 14:54 METAR KPTW 201854Z AUTO VRB05KT 10SM CLR 27/16 A3012 RMK AO2 SLP196 T02670161 =
2017-08-20 13:54 METAR KPTW 201754Z AUTO VRB06KT 10SM CLR 26/16 A3014 RMK AO2 SLP202 T02610161
                 10261 20189 51007 =
2017-08-20 12:54 METAR KPTW 201654Z AUTO VRB04KT 10SM CLR 25/16 A3014 RMK AO2 SLP201 T02500161 =
2017-08-20 11:54 METAR KPTW 201554Z AUTO 32005KT 10SM CLR 24/16 A3013 RMK AO2 SLP199 T02440161 =
2017-08-20 10:54 METAR KPTW 201454Z AUTO 30008KT 10SM CLR 23/16 A3012 RMK AO2 SLP196 T02330156
                 53008 =
2017-08-20 09:54 METAR KPTW 201354Z AUTO VRB03KT 9SM CLR 22/17 A3011 RMK AO2 SLP193 T02170167 =
2017-08-20 08:54 METAR KPTW 201254Z AUTO 31008KT 9SM CLR 20/17 A3010 RMK AO2 SLP189 T02000167 =
2017-08-20 07:54 METAR KPTW 201154Z AUTO 30005KT 8SM CLR 18/17 A3010 RMK AO2 SLP187 T01830167
                 10183 20156 51021 =

Support USWX by starting your Amazon purchase here.